sensor_id;sensor_type;location;lat;lon;timestamp;P1;durP1;ratioP1;P2;durP2;ratioP2
2544;SDS011;36212;48.838;9.142;2023-03-01T00:02:10;14.80;;;12.82;;
2544;SDS011;36212;48.838;9.142;2023-03-01T00:04:42;19.10;;;12.65;;
2544;SDS011;36212;48.838;9.142;2023-03-01T00:07:15;16.40;;;13.02;;
2544;SDS011;36212;48.838;9.142;2023-03-01T00:09:47;18.70;;;13.30;;
2544;SDS011;36212;48.838;9.142;2023-03-01T00:12:19;15.48;;;12.98;;
2544;SDS011;36212;48.838;9.142;2023-03-01T00:14:52;16.08;;;12.48;;
2544;SDS011;36212;48.838;9.142;2023-03-01T00:17:24;20.45;;;12.65;;
2544;SDS011;36212;48.838;9.142;2023-03-01T00:19:57;16.02;;;14.32;;
2544;SDS011;36212;48.838;9.142;2023-03-01T00:22:29;17.65;;;12.10;;
2544;SDS011;36212;48.838;9.142;2023-03-01T00:25:01;14.68;;;11.65;;
2544;SDS011;36212;48.838;9.142;2023-03-01T00:27:34;17.10;;;11.98;;
2544;SDS011;36212;48.838;9.142;2023-03-01T00:30:06;22.08;;;13.93;;
2544;SDS011;36212;48.838;9.142;2023-03-01T00:32:40;16.83;;;13.32;;
2544;SDS011;36212;48.838;9.142;2023-03-01T00:35:12;19.98;;;13.00;;
2544;SDS011;36212;48.838;9.142;2023-03-01T00:37:44;20.13;;;14.57;;
2544;SDS011;36212;48.838;9.142;2023-03-01T00:40:17;16.80;;;13.65;;
2544;SDS011;36212;48.838;9.142;2023-03-01T00:42:49;19.52;;;14.15;;
2544;SDS011;36212;48.838;9.142;2023-03-01T00:45:21;17.88;;;11.27;;
2544;SDS011;36212;48.838;9.142;2023-03-01T00:47:54;17.35;;;13.00;;
2544;SDS011;36212;48.838;9.142;2023-03-01T00:50:26;16.15;;;12.45;;
2544;SDS011;36212;48.838;9.142;2023-03-01T00:52:59;14.40;;;11.63;;
2544;SDS011;36212;48.838;9.142;2023-03-01T00:55:31;16.27;;;11.55;;
2544;SDS011;36212;48.838;9.142;2023-03-01T00:58:03;15.85;;;12.95;;
2544;SDS011;36212;48.838;9.142;2023-03-01T01:00:35;16.40;;;12.63;;
2544;SDS011;36212;48.838;9.142;2023-03-01T01:03:08;14.48;;;11.02;;
2544;SDS011;36212;48.838;9.142;2023-03-01T01:05:40;22.23;;;15.60;;
2544;SDS011;36212;48.838;9.142;2023-03-01T01:08:12;16.67;;;12.82;;
2544;SDS011;36212;48.838;9.142;2023-03-01T01:10:45;22.70;;;15.02;;
2544;SDS011;36212;48.838;9.142;2023-03-01T01:13:17;19.02;;;13.50;;
2544;SDS011;36212;48.838;9.142;2023-03-01T01:15:51;19.98;;;14.75;;
2544;SDS011;36212;48.838;9.142;2023-03-01T01:18:23;15.07;;;12.85;;
2544;SDS011;36212;48.838;9.142;2023-03-01T01:20:55;20.35;;;13.07;;
2544;SDS011;36212;48.838;9.142;2023-03-01T01:23:27;18.73;;;14.85;;
2544;SDS011;36212;48.838;9.142;2023-03-01T01:26:19;18.73;;;14.30;;
2544;SDS011;36212;48.838;9.142;2023-03-01T01:28:54;18.73;;;13.57;;
2544;SDS011;36212;48.838;9.142;2023-03-01T01:31:27;23.33;;;14.57;;
2544;SDS011;36212;48.838;9.142;2023-03-01T01:34:03;17.17;;;13.68;;
2544;SDS011;36212;48.838;9.142;2023-03-01T01:36:38;22.52;;;15.02;;
2544;SDS011;36212;48.838;9.142;2023-03-01T01:39:10;19.15;;;12.63;;
2544;SDS011;36212;48.838;9.142;2023-03-01T01:41:44;19.08;;;12.77;;
2544;SDS011;36212;48.838;9.142;2023-03-01T01:44:26;16.30;;;12.63;;
2544;SDS011;36212;48.838;9.142;2023-03-01T01:47:01;20.05;;;14.57;;
2544;SDS011;36212;48.838;9.142;2023-03-01T01:49:44;15.20;;;12.48;;
2544;SDS011;36212;48.838;9.142;2023-03-01T01:52:25;15.55;;;13.32;;
2544;SDS011;36212;48.838;9.142;2023-03-01T01:55:19;18.30;;;13.68;;
2544;SDS011;36212;48.838;9.142;2023-03-01T01:57:58;20.85;;;15.02;;
2544;SDS011;36212;48.838;9.142;2023-03-01T02:00:35;18.55;;;12.65;;
2544;SDS011;36212;48.838;9.142;2023-03-01T02:03:13;22.17;;;14.27;;
2544;SDS011;36212;48.838;9.142;2023-03-01T02:08:49;17.70;;;12.70;;
2544;SDS011;36212;48.838;9.142;2023-03-01T02:11:29;22.58;;;14.43;;
2544;SDS011;36212;48.838;9.142;2023-03-01T02:14:03;18.05;;;13.68;;
2544;SDS011;36212;48.838;9.142;2023-03-01T02:16:36;18.73;;;14.32;;
2544;SDS011;36212;48.838;9.142;2023-03-01T02:19:08;18.83;;;12.85;;
2544;SDS011;36212;48.838;9.142;2023-03-01T02:25:03;19.08;;;14.45;;
2544;SDS011;36212;48.838;9.142;2023-03-01T02:30:54;17.13;;;13.60;;
2544;SDS011;36212;48.838;9.142;2023-03-01T02:34:05;22.48;;;14.35;;
2544;SDS011;36212;48.838;9.142;2023-03-01T02:36:45;22.98;;;14.65;;
2544;SDS011;36212;48.838;9.142;2023-03-01T02:39:28;24.15;;;15.80;;
2544;SDS011;36212;48.838;9.142;2023-03-01T02:42:18;22.98;;;14.88;;
2544;SDS011;36212;48.838;9.142;2023-03-01T02:45:02;19.70;;;14.40;;
2544;SDS011;36212;48.838;9.142;2023-03-01T02:47:35;21.05;;;14.98;;
2544;SDS011;36212;48.838;9.142;2023-03-01T02:50:13;20.30;;;15.65;;
2544;SDS011;36212;48.838;9.142;2023-03-01T02:53:25;18.67;;;13.95;;
2544;SDS011;36212;48.838;9.142;2023-03-01T02:56:15;19.90;;;14.27;;
2544;SDS011;36212;48.838;9.142;2023-03-01T02:58:48;18.55;;;13.73;;
2544;SDS011;36212;48.838;9.142;2023-03-01T03:01:23;21.10;;;15.50;;
2544;SDS011;36212;48.838;9.142;2023-03-01T03:04:09;18.23;;;15.30;;
2544;SDS011;36212;48.838;9.142;2023-03-01T03:06:49;16.90;;;13.95;;
2544;SDS011;36212;48.838;9.142;2023-03-01T03:09:22;18.73;;;15.02;;
2544;SDS011;36212;48.838;9.142;2023-03-01T03:11:54;18.42;;;14.52;;
2544;SDS011;36212;48.838;9.142;2023-03-01T03:14:26;18.42;;;14.07;;
2544;SDS011;36212;48.838;9.142;2023-03-01T03:16:58;20.30;;;15.60;;
2544;SDS011;36212;48.838;9.142;2023-03-01T03:19:30;18.80;;;14.50;;
2544;SDS011;36212;48.838;9.142;2023-03-01T03:22:02;16.88;;;13.45;;
2544;SDS011;36212;48.838;9.142;2023-03-01T03:24:34;19.42;;;12.30;;
2544;SDS011;36212;48.838;9.142;2023-03-01T03:27:09;16.48;;;13.40;;
2544;SDS011;36212;48.838;9.142;2023-03-01T03:29:41;18.30;;;14.45;;
2544;SDS011;36212;48.838;9.142;2023-03-01T03:32:13;17.60;;;14.30;;
2544;SDS011;36212;48.838;9.142;2023-03-01T03:34:45;23.48;;;14.35;;
2544;SDS011;36212;48.838;9.142;2023-03-01T03:37:18;19.90;;;14.35;;
2544;SDS011;36212;48.838;9.142;2023-03-01T03:40:36;17.73;;;14.82;;
2544;SDS011;36212;48.838;9.142;2023-03-01T03:43:12;22.85;;;14.85;;
2544;SDS011;36212;48.838;9.142;2023-03-01T03:45:49;19.38;;;16.27;;
2544;SDS011;36212;48.838;9.142;2023-03-01T03:48:22;17.98;;;14.18;;
2544;SDS011;36212;48.838;9.142;2023-03-01T03:50:55;21.33;;;16.00;;
2544;SDS011;36212;48.838;9.142;2023-03-01T03:53:28;25.15;;;16.55;;
2544;SDS011;36212;48.838;9.142;2023-03-01T03:56:01;19.65;;;15.73;;
2544;SDS011;36212;48.838;9.142;2023-03-01T03:58:34;19.73;;;16.33;;
2544;SDS011;36212;48.838;9.142;2023-03-01T04:01:06;21.17;;;14.48;;
2544;SDS011;36212;48.838;9.142;2023-03-01T04:03:38;24.30;;;15.90;;
2544;SDS011;36212;48.838;9.142;2023-03-01T04:06:12;24.73;;;16.50;;
2544;SDS011;36212;48.838;9.142;2023-03-01T04:08:45;21.05;;;16.13;;
2544;SDS011;36212;48.838;9.142;2023-03-01T04:11:21;21.50;;;15.90;;
2544;SDS011;36212;48.838;9.142;2023-03-01T04:13:58;19.52;;;15.50;;
2544;SDS011;36212;48.838;9.142;2023-03-01T04:16:31;21.10;;;15.23;;
2544;SDS011;36212;48.838;9.142;2023-03-01T04:19:04;23.70;;;16.15;;
2544;SDS011;36212;48.838;9.142;2023-03-01T04:21:39;20.20;;;15.05;;
2544;SDS011;36212;48.838;9.142;2023-03-01T04:24:11;25.08;;;15.70;;
2544;SDS011;36212;48.838;9.142;2023-03-01T04:26:44;21.13;;;15.45;;
2544;SDS011;36212;48.838;9.142;2023-03-01T04:29:16;23.25;;;15.65;;
2544;SDS011;36212;48.838;9.142;2023-03-01T04:31:48;23.25;;;15.48;;
2544;SDS011;36212;48.838;9.142;2023-03-01T04:34:20;26.70;;;18.30;;
2544;SDS011;36212;48.838;9.142;2023-03-01T04:36:52;32.80;;;18.27;;
2544;SDS011;36212;48.838;9.142;2023-03-01T04:39:25;22.15;;;14.82;;
2544;SDS011;36212;48.838;9.142;2023-03-01T04:41:57;23.20;;;16.15;;
2544;SDS011;36212;48.838;9.142;2023-03-01T04:44:29;23.33;;;17.45;;
2544;SDS011;36212;48.838;9.142;2023-03-01T04:47:01;26.67;;;17.38;;
2544;SDS011;36212;48.838;9.142;2023-03-01T04:49:33;18.38;;;15.50;;
2544;SDS011;36212;48.838;9.142;2023-03-01T04:52:05;23.13;;;16.70;;
2544;SDS011;36212;48.838;9.142;2023-03-01T04:54:39;23.63;;;16.33;;
2544;SDS011;36212;48.838;9.142;2023-03-01T04:57:11;23.65;;;16.67;;
2544;SDS011;36212;48.838;9.142;2023-03-01T04:59:43;21.48;;;16.13;;
2544;SDS011;36212;48.838;9.142;2023-03-01T05:02:15;22.60;;;16.20;;
2544;SDS011;36212;48.838;9.142;2023-03-01T05:04:47;23.55;;;14.13;;
2544;SDS011;36212;48.838;9.142;2023-03-01T05:07:19;18.88;;;14.88;;
2544;SDS011;36212;48.838;9.142;2023-03-01T05:09:51;22.98;;;17.00;;
2544;SDS011;36212;48.838;9.142;2023-03-01T05:12:26;22.08;;;16.67;;
2544;SDS011;36212;48.838;9.142;2023-03-01T05:14:58;21.13;;;15.77;;
2544;SDS011;36212;48.838;9.142;2023-03-01T05:17:30;21.17;;;16.23;;
2544;SDS011;36212;48.838;9.142;2023-03-01T05:20:04;22.70;;;16.70;;
2544;SDS011;36212;48.838;9.142;2023-03-01T05:22:40;21.90;;;16.60;;
2544;SDS011;36212;48.838;9.142;2023-03-01T05:25:12;23.63;;;16.95;;
2544;SDS011;36212;48.838;9.142;2023-03-01T05:27:46;21.88;;;17.02;;
2544;SDS011;36212;48.838;9.142;2023-03-01T05:30:18;20.70;;;16.15;;
2544;SDS011;36212;48.838;9.142;2023-03-01T05:32:51;21.48;;;17.08;;
2544;SDS011;36212;48.838;9.142;2023-03-01T05:35:27;23.75;;;16.08;;
2544;SDS011;36212;48.838;9.142;2023-03-01T05:38:11;25.35;;;17.25;;
2544;SDS011;36212;48.838;9.142;2023-03-01T05:40:48;23.67;;;16.65;;
2544;SDS011;36212;48.838;9.142;2023-03-01T05:43:20;21.17;;;17.90;;
2544;SDS011;36212;48.838;9.142;2023-03-01T05:45:52;20.33;;;16.70;;
2544;SDS011;36212;48.838;9.142;2023-03-01T05:48:27;24.20;;;16.40;;
2544;SDS011;36212;48.838;9.142;2023-03-01T05:50:59;20.70;;;15.77;;
2544;SDS011;36212;48.838;9.142;2023-03-01T05:53:32;22.30;;;16.67;;
2544;SDS011;36212;48.838;9.142;2023-03-01T05:56:04;23.52;;;17.02;;
2544;SDS011;36212;48.838;9.142;2023-03-01T05:58:37;24.08;;;17.38;;
2544;SDS011;36212;48.838;9.142;2023-03-01T06:01:13;24.08;;;16.90;;
2544;SDS011;36212;48.838;9.142;2023-03-01T06:03:45;24.05;;;16.83;;
2544;SDS011;36212;48.838;9.142;2023-03-01T06:06:17;23.17;;;16.67;;
2544;SDS011;36212;48.838;9.142;2023-03-01T06:08:49;23.67;;;16.10;;
2544;SDS011;36212;48.838;9.142;2023-03-01T06:11:23;24.00;;;16.73;;
2544;SDS011;36212;48.838;9.142;2023-03-01T06:13:55;24.30;;;16.70;;
2544;SDS011;36212;48.838;9.142;2023-03-01T06:16:27;20.55;;;15.63;;
2544;SDS011;36212;48.838;9.142;2023-03-01T06:19:00;23.33;;;16.23;;
2544;SDS011;36212;48.838;9.142;2023-03-01T06:21:32;22.23;;;15.02;;
2544;SDS011;36212;48.838;9.142;2023-03-01T06:24:04;20.20;;;15.48;;
2544;SDS011;36212;48.838;9.142;2023-03-01T06:26:39;26.20;;;17.38;;
2544;SDS011;36212;48.838;9.142;2023-03-01T06:29:11;21.08;;;16.15;;
2544;SDS011;36212;48.838;9.142;2023-03-01T06:31:44;18.13;;;14.13;;
2544;SDS011;36212;48.838;9.142;2023-03-01T06:34:17;21.13;;;14.65;;
2544;SDS011;36212;48.838;9.142;2023-03-01T06:36:49;21.45;;;15.55;;
2544;SDS011;36212;48.838;9.142;2023-03-01T06:39:21;21.35;;;16.50;;
2544;SDS011;36212;48.838;9.142;2023-03-01T06:41:53;22.25;;;15.43;;
2544;SDS011;36212;48.838;9.142;2023-03-01T06:44:25;24.30;;;17.30;;
2544;SDS011;36212;48.838;9.142;2023-03-01T06:46:58;21.60;;;15.07;;
2544;SDS011;36212;48.838;9.142;2023-03-01T06:49:30;24.17;;;15.77;;
2544;SDS011;36212;48.838;9.142;2023-03-01T06:52:02;21.30;;;16.80;;
2544;SDS011;36212;48.838;9.142;2023-03-01T06:54:34;23.23;;;17.38;;
2544;SDS011;36212;48.838;9.142;2023-03-01T06:57:07;28.50;;;16.98;;
2544;SDS011;36212;48.838;9.142;2023-03-01T06:59:39;21.80;;;16.80;;
2544;SDS011;36212;48.838;9.142;2023-03-01T07:02:11;25.65;;;18.10;;
2544;SDS011;36212;48.838;9.142;2023-03-01T07:04:44;23.05;;;18.90;;
2544;SDS011;36212;48.838;9.142;2023-03-01T07:07:16;26.13;;;17.75;;
2544;SDS011;36212;48.838;9.142;2023-03-01T07:09:50;23.25;;;18.20;;
2544;SDS011;36212;48.838;9.142;2023-03-01T07:12:23;23.30;;;17.50;;
2544;SDS011;36212;48.838;9.142;2023-03-01T07:14:55;24.10;;;17.73;;
2544;SDS011;36212;48.838;9.142;2023-03-01T07:17:27;26.25;;;18.60;;
2544;SDS011;36212;48.838;9.142;2023-03-01T07:19:59;23.80;;;17.55;;
2544;SDS011;36212;48.838;9.142;2023-03-01T07:22:31;22.75;;;17.52;;
2544;SDS011;36212;48.838;9.142;2023-03-01T07:25:03;23.40;;;17.90;;
2544;SDS011;36212;48.838;9.142;2023-03-01T07:27:36;23.20;;;17.48;;
2544;SDS011;36212;48.838;9.142;2023-03-01T07:30:09;22.60;;;17.88;;
2544;SDS011;36212;48.838;9.142;2023-03-01T07:32:43;22.20;;;17.40;;
2544;SDS011;36212;48.838;9.142;2023-03-01T07:35:35;20.05;;;16.73;;
2544;SDS011;36212;48.838;9.142;2023-03-01T07:38:07;20.30;;;16.63;;
2544;SDS011;36212;48.838;9.142;2023-03-01T07:40:39;19.70;;;16.40;;
2544;SDS011;36212;48.838;9.142;2023-03-01T07:43:11;23.85;;;19.10;;
2544;SDS011;36212;48.838;9.142;2023-03-01T07:45:43;22.23;;;17.05;;
2544;SDS011;36212;48.838;9.142;2023-03-01T07:48:16;20.02;;;17.80;;
2544;SDS011;36212;48.838;9.142;2023-03-01T07:50:48;20.35;;;16.70;;
2544;SDS011;36212;48.838;9.142;2023-03-01T07:53:21;22.00;;;17.52;;
2544;SDS011;36212;48.838;9.142;2023-03-01T07:58:41;23.65;;;17.27;;
2544;SDS011;36212;48.838;9.142;2023-03-01T08:01:16;20.58;;;17.88;;
2544;SDS011;36212;48.838;9.142;2023-03-01T08:03:51;21.23;;;18.00;;
2544;SDS011;36212;48.838;9.142;2023-03-01T08:06:23;23.10;;;17.55;;
2544;SDS011;36212;48.838;9.142;2023-03-01T08:08:55;19.67;;;16.58;;
2544;SDS011;36212;48.838;9.142;2023-03-01T08:11:28;19.33;;;16.63;;
2544;SDS011;36212;48.838;9.142;2023-03-01T08:14:00;18.42;;;16.50;;
2544;SDS011;36212;48.838;9.142;2023-03-01T08:16:33;20.45;;;17.02;;
2544;SDS011;36212;48.838;9.142;2023-03-01T08:19:07;20.25;;;17.10;;
2544;SDS011;36212;48.838;9.142;2023-03-01T08:21:42;17.77;;;15.60;;
2544;SDS011;36212;48.838;9.142;2023-03-01T08:24:14;19.05;;;16.80;;
2544;SDS011;36212;48.838;9.142;2023-03-01T08:26:46;20.08;;;16.80;;
2544;SDS011;36212;48.838;9.142;2023-03-01T08:29:18;19.45;;;16.45;;
2544;SDS011;36212;48.838;9.142;2023-03-01T08:31:51;18.42;;;16.38;;
2544;SDS011;36212;48.838;9.142;2023-03-01T08:34:23;19.30;;;16.67;;
2544;SDS011;36212;48.838;9.142;2023-03-01T08:36:56;20.02;;;17.30;;
2544;SDS011;36212;48.838;9.142;2023-03-01T08:39:28;22.35;;;17.50;;
2544;SDS011;36212;48.838;9.142;2023-03-01T08:42:01;23.52;;;18.60;;
2544;SDS011;36212;48.838;9.142;2023-03-01T08:44:33;19.60;;;17.02;;
2544;SDS011;36212;48.838;9.142;2023-03-01T08:47:06;24.48;;;17.92;;
2544;SDS011;36212;48.838;9.142;2023-03-01T08:49:38;20.33;;;17.40;;
2544;SDS011;36212;48.838;9.142;2023-03-01T08:52:11;18.85;;;16.40;;
2544;SDS011;36212;48.838;9.142;2023-03-01T08:54:43;19.42;;;17.33;;
2544;SDS011;36212;48.838;9.142;2023-03-01T08:57:17;22.13;;;17.58;;
2544;SDS011;36212;48.838;9.142;2023-03-01T08:59:49;22.55;;;17.70;;
2544;SDS011;36212;48.838;9.142;2023-03-01T09:02:22;21.98;;;17.63;;
2544;SDS011;36212;48.838;9.142;2023-03-01T09:04:54;20.27;;;16.75;;
2544;SDS011;36212;48.838;9.142;2023-03-01T09:07:26;20.95;;;16.75;;
2544;SDS011;36212;48.838;9.142;2023-03-01T09:10:02;21.40;;;17.40;;
2544;SDS011;36212;48.838;9.142;2023-03-01T09:12:35;24.08;;;18.20;;
2544;SDS011;36212;48.838;9.142;2023-03-01T09:15:07;22.38;;;16.70;;
2544;SDS011;36212;48.838;9.142;2023-03-01T09:17:40;20.30;;;15.45;;
2544;SDS011;36212;48.838;9.142;2023-03-01T09:20:13;21.60;;;17.10;;
2544;SDS011;36212;48.838;9.142;2023-03-01T09:22:46;24.80;;;18.75;;
2544;SDS011;36212;48.838;9.142;2023-03-01T09:25:18;20.65;;;17.00;;
2544;SDS011;36212;48.838;9.142;2023-03-01T09:27:51;23.08;;;17.67;;
2544;SDS011;36212;48.838;9.142;2023-03-01T09:30:24;20.20;;;17.52;;
2544;SDS011;36212;48.838;9.142;2023-03-01T09:32:56;20.98;;;16.20;;
2544;SDS011;36212;48.838;9.142;2023-03-01T09:35:31;20.75;;;16.80;;
2544;SDS011;36212;48.838;9.142;2023-03-01T09:38:03;23.35;;;17.92;;
2544;SDS011;36212;48.838;9.142;2023-03-01T09:40:35;22.55;;;18.45;;
2544;SDS011;36212;48.838;9.142;2023-03-01T09:43:17;24.27;;;16.63;;
2544;SDS011;36212;48.838;9.142;2023-03-01T09:46:14;20.05;;;16.58;;
2544;SDS011;36212;48.838;9.142;2023-03-01T09:48:56;19.30;;;15.95;;
2544;SDS011;36212;48.838;9.142;2023-03-01T09:51:36;22.13;;;17.98;;
2544;SDS011;36212;48.838;9.142;2023-03-01T09:54:09;22.33;;;16.33;;
2544;SDS011;36212;48.838;9.142;2023-03-01T09:56:56;22.42;;;16.83;;
2544;SDS011;36212;48.838;9.142;2023-03-01T10:00:16;22.20;;;17.60;;
2544;SDS011;36212;48.838;9.142;2023-03-01T10:03:14;20.05;;;16.90;;
2544;SDS011;36212;48.838;9.142;2023-03-01T10:06:04;21.67;;;16.63;;
2544;SDS011;36212;48.838;9.142;2023-03-01T10:09:21;20.02;;;15.85;;
2544;SDS011;36212;48.838;9.142;2023-03-01T10:11:54;19.77;;;16.42;;
2544;SDS011;36212;48.838;9.142;2023-03-01T10:14:48;19.27;;;16.20;;
2544;SDS011;36212;48.838;9.142;2023-03-01T10:18:01;22.60;;;18.00;;
2544;SDS011;36212;48.838;9.142;2023-03-01T10:23:27;23.63;;;17.27;;
2544;SDS011;36212;48.838;9.142;2023-03-01T10:26:11;26.42;;;17.73;;
2544;SDS011;36212;48.838;9.142;2023-03-01T10:29:11;20.10;;;16.63;;
2544;SDS011;36212;48.838;9.142;2023-03-01T10:31:46;21.65;;;16.30;;
2544;SDS011;36212;48.838;9.142;2023-03-01T10:34:27;28.15;;;16.23;;
2544;SDS011;36212;48.838;9.142;2023-03-01T10:37:17;18.90;;;15.35;;
2544;SDS011;36212;48.838;9.142;2023-03-01T10:40:02;22.13;;;17.10;;
2544;SDS011;36212;48.838;9.142;2023-03-01T10:42:49;20.40;;;17.00;;
2544;SDS011;36212;48.838;9.142;2023-03-01T10:53:40;19.27;;;16.33;;
2544;SDS011;36212;48.838;9.142;2023-03-01T10:56:19;22.08;;;15.43;;
2544;SDS011;36212;48.838;9.142;2023-03-01T10:59:03;21.48;;;17.65;;
2544;SDS011;36212;48.838;9.142;2023-03-01T11:02:01;19.77;;;16.00;;
2544;SDS011;36212;48.838;9.142;2023-03-01T11:05:01;22.98;;;15.23;;
2544;SDS011;36212;48.838;9.142;2023-03-01T11:07:57;18.88;;;16.48;;
2544;SDS011;36212;48.838;9.142;2023-03-01T11:10:32;19.75;;;16.80;;
2544;SDS011;36212;48.838;9.142;2023-03-01T11:13:08;18.90;;;15.65;;
2544;SDS011;36212;48.838;9.142;2023-03-01T11:15:59;20.05;;;15.15;;
2544;SDS011;36212;48.838;9.142;2023-03-01T11:18:36;18.45;;;16.50;;
2544;SDS011;36212;48.838;9.142;2023-03-01T11:21:28;18.05;;;15.48;;
2544;SDS011;36212;48.838;9.142;2023-03-01T11:24:08;19.75;;;16.00;;
2544;SDS011;36212;48.838;9.142;2023-03-01T11:26:50;19.30;;;15.40;;
2544;SDS011;36212;48.838;9.142;2023-03-01T11:29:27;17.83;;;15.93;;
2544;SDS011;36212;48.838;9.142;2023-03-01T11:32:41;19.58;;;14.63;;
2544;SDS011;36212;48.838;9.142;2023-03-01T11:35:31;16.15;;;14.55;;
2544;SDS011;36212;48.838;9.142;2023-03-01T11:38:23;16.58;;;14.80;;
2544;SDS011;36212;48.838;9.142;2023-03-01T11:43:57;17.05;;;15.00;;
2544;SDS011;36212;48.838;9.142;2023-03-01T11:50:08;19.85;;;14.35;;
2544;SDS011;36212;48.838;9.142;2023-03-01T11:56:29;17.15;;;15.50;;
2544;SDS011;36212;48.838;9.142;2023-03-01T11:59:24;17.63;;;14.85;;
2544;SDS011;36212;48.838;9.142;2023-03-01T12:24:04;17.63;;;14.93;;
2544;SDS011;36212;48.838;9.142;2023-03-01T12:42:57;16.90;;;15.10;;
2544;SDS011;36212;48.838;9.142;2023-03-01T12:49:33;19.33;;;16.50;;
2544;SDS011;36212;48.838;9.142;2023-03-01T13:05:06;16.08;;;14.38;;
2544;SDS011;36212;48.838;9.142;2023-03-01T13:10:58;17.25;;;15.25;;
2544;SDS011;36212;48.838;9.142;2023-03-01T13:13:35;19.63;;;14.77;;
2544;SDS011;36212;48.838;9.142;2023-03-01T13:19:15;19.10;;;15.63;;
2544;SDS011;36212;48.838;9.142;2023-03-01T13:21:51;16.98;;;14.30;;
2544;SDS011;36212;48.838;9.142;2023-03-01T13:24:41;17.98;;;15.70;;
2544;SDS011;36212;48.838;9.142;2023-03-01T13:29:53;18.65;;;15.48;;
2544;SDS011;36212;48.838;9.142;2023-03-01T13:32:30;16.52;;;14.52;;
2544;SDS011;36212;48.838;9.142;2023-03-01T13:41:59;17.75;;;15.60;;
2544;SDS011;36212;48.838;9.142;2023-03-01T13:44:33;19.80;;;15.80;;
2544;SDS011;36212;48.838;9.142;2023-03-01T13:49:51;18.48;;;16.58;;
2544;SDS011;36212;48.838;9.142;2023-03-01T13:55:23;17.45;;;14.52;;
2544;SDS011;36212;48.838;9.142;2023-03-01T13:58:22;16.35;;;14.57;;
2544;SDS011;36212;48.838;9.142;2023-03-01T14:03:40;17.30;;;15.48;;
2544;SDS011;36212;48.838;9.142;2023-03-01T14:06:18;17.95;;;15.77;;
2544;SDS011;36212;48.838;9.142;2023-03-01T14:09:03;17.92;;;15.18;;
2544;SDS011;36212;48.838;9.142;2023-03-01T14:15:23;21.55;;;15.27;;
2544;SDS011;36212;48.838;9.142;2023-03-01T14:18:17;15.57;;;14.00;;
2544;SDS011;36212;48.838;9.142;2023-03-01T14:21:31;23.80;;;16.30;;
2544;SDS011;36212;48.838;9.142;2023-03-01T14:24:03;18.63;;;15.75;;
2544;SDS011;36212;48.838;9.142;2023-03-01T14:26:49;18.40;;;16.55;;
2544;SDS011;36212;48.838;9.142;2023-03-01T14:29:26;19.90;;;16.65;;
2544;SDS011;36212;48.838;9.142;2023-03-01T14:32:18;19.08;;;15.73;;
2544;SDS011;36212;48.838;9.142;2023-03-01T14:34:55;16.17;;;14.40;;
2544;SDS011;36212;48.838;9.142;2023-03-01T14:37:33;18.35;;;15.90;;
2544;SDS011;36212;48.838;9.142;2023-03-01T14:40:18;19.08;;;16.42;;
2544;SDS011;36212;48.838;9.142;2023-03-01T14:42:59;17.40;;;15.60;;
2544;SDS011;36212;48.838;9.142;2023-03-01T14:45:48;19.40;;;15.05;;
2544;SDS011;36212;48.838;9.142;2023-03-01T14:48:23;16.80;;;15.10;;
2544;SDS011;36212;48.838;9.142;2023-03-01T14:50:58;21.35;;;16.60;;
2544;SDS011;36212;48.838;9.142;2023-03-01T14:53:34;19.17;;;16.20;;
2544;SDS011;36212;48.838;9.142;2023-03-01T14:56:21;18.10;;;15.68;;
2544;SDS011;36212;48.838;9.142;2023-03-01T14:58:54;17.80;;;15.90;;
2544;SDS011;36212;48.838;9.142;2023-03-01T15:01:31;17.92;;;16.10;;
2544;SDS011;36212;48.838;9.142;2023-03-01T15:04:04;17.27;;;15.07;;
2544;SDS011;36212;48.838;9.142;2023-03-01T15:06:41;17.80;;;15.55;;
2544;SDS011;36212;48.838;9.142;2023-03-01T15:09:15;18.30;;;16.38;;
2544;SDS011;36212;48.838;9.142;2023-03-01T15:11:49;19.50;;;14.90;;
2544;SDS011;36212;48.838;9.142;2023-03-01T15:14:25;18.52;;;16.20;;
2544;SDS011;36212;48.838;9.142;2023-03-01T15:17:19;18.05;;;16.17;;
2544;SDS011;36212;48.838;9.142;2023-03-01T15:20:03;18.55;;;15.70;;
2544;SDS011;36212;48.838;9.142;2023-03-01T15:22:47;16.98;;;15.18;;
2544;SDS011;36212;48.838;9.142;2023-03-01T15:25:27;17.05;;;14.38;;
2544;SDS011;36212;48.838;9.142;2023-03-01T15:28:03;16.63;;;14.80;;
2544;SDS011;36212;48.838;9.142;2023-03-01T15:31:16;17.02;;;15.02;;
2544;SDS011;36212;48.838;9.142;2023-03-01T15:34:07;18.42;;;14.80;;
2544;SDS011;36212;48.838;9.142;2023-03-01T15:37:15;17.25;;;15.32;;
2544;SDS011;36212;48.838;9.142;2023-03-01T15:40:26;23.13;;;16.25;;
2544;SDS011;36212;48.838;9.142;2023-03-01T15:43:04;18.50;;;15.70;;
2544;SDS011;36212;48.838;9.142;2023-03-01T15:45:59;18.80;;;15.77;;
2544;SDS011;36212;48.838;9.142;2023-03-01T15:48:31;19.77;;;14.50;;
2544;SDS011;36212;48.838;9.142;2023-03-01T15:51:04;20.75;;;14.55;;
2544;SDS011;36212;48.838;9.142;2023-03-01T15:53:44;19.80;;;15.10;;
2544;SDS011;36212;48.838;9.142;2023-03-01T15:56:28;16.80;;;14.32;;
2544;SDS011;36212;48.838;9.142;2023-03-01T15:59:01;22.60;;;15.40;;
2544;SDS011;36212;48.838;9.142;2023-03-01T16:01:43;17.83;;;15.27;;
2544;SDS011;36212;48.838;9.142;2023-03-01T16:04:18;20.35;;;15.82;;
2544;SDS011;36212;48.838;9.142;2023-03-01T16:06:54;21.58;;;15.80;;
2544;SDS011;36212;48.838;9.142;2023-03-01T16:09:27;18.90;;;15.20;;
2544;SDS011;36212;48.838;9.142;2023-03-01T16:12:00;23.17;;;15.52;;
2544;SDS011;36212;48.838;9.142;2023-03-01T16:14:33;18.45;;;15.43;;
2544;SDS011;36212;48.838;9.142;2023-03-01T16:17:05;20.15;;;14.02;;
2544;SDS011;36212;48.838;9.142;2023-03-01T16:19:40;19.23;;;16.10;;
2544;SDS011;36212;48.838;9.142;2023-03-01T16:22:14;17.85;;;15.57;;
2544;SDS011;36212;48.838;9.142;2023-03-01T16:24:47;21.27;;;15.45;;
2544;SDS011;36212;48.838;9.142;2023-03-01T16:27:20;19.65;;;15.30;;
2544;SDS011;36212;48.838;9.142;2023-03-01T16:29:54;17.70;;;14.52;;
2544;SDS011;36212;48.838;9.142;2023-03-01T16:32:27;18.25;;;14.15;;
2544;SDS011;36212;48.838;9.142;2023-03-01T16:35:00;22.10;;;15.48;;
2544;SDS011;36212;48.838;9.142;2023-03-01T16:37:33;19.10;;;16.15;;
2544;SDS011;36212;48.838;9.142;2023-03-01T16:40:14;20.60;;;16.58;;
2544;SDS011;36212;48.838;9.142;2023-03-01T16:43:01;20.67;;;15.80;;
2544;SDS011;36212;48.838;9.142;2023-03-01T16:45:36;24.05;;;15.75;;
2544;SDS011;36212;48.838;9.142;2023-03-01T16:48:11;20.00;;;15.32;;
2544;SDS011;36212;48.838;9.142;2023-03-01T16:50:58;18.05;;;14.70;;
2544;SDS011;36212;48.838;9.142;2023-03-01T16:53:34;20.13;;;15.38;;
2544;SDS011;36212;48.838;9.142;2023-03-01T16:56:11;19.23;;;14.10;;
2544;SDS011;36212;48.838;9.142;2023-03-01T16:58:45;19.23;;;15.20;;
2544;SDS011;36212;48.838;9.142;2023-03-01T17:01:29;17.73;;;14.27;;
2544;SDS011;36212;48.838;9.142;2023-03-01T17:04:12;18.33;;;14.30;;
2544;SDS011;36212;48.838;9.142;2023-03-01T17:06:45;20.88;;;14.27;;
2544;SDS011;36212;48.838;9.142;2023-03-01T17:09:19;20.60;;;14.98;;
2544;SDS011;36212;48.838;9.142;2023-03-01T17:12:50;18.73;;;15.23;;
2544;SDS011;36212;48.838;9.142;2023-03-01T17:15:22;21.92;;;14.60;;
2544;SDS011;36212;48.838;9.142;2023-03-01T17:17:56;21.90;;;13.63;;
2544;SDS011;36212;48.838;9.142;2023-03-01T17:20:29;21.95;;;15.60;;
2544;SDS011;36212;48.838;9.142;2023-03-01T17:23:03;20.85;;;16.38;;
2544;SDS011;36212;48.838;9.142;2023-03-01T17:25:35;21.20;;;16.60;;
2544;SDS011;36212;48.838;9.142;2023-03-01T17:28:16;20.95;;;15.30;;
2544;SDS011;36212;48.838;9.142;2023-03-01T17:30:48;23.17;;;16.27;;